Allen, Louisiana
Current Conditions -  °F | °C
As of 11:55 PM on Wednesday 22 Oct 2014 (Local Time) from KIER Reporting Station
Clear Clear  
Wind Chill: 59°   Ceiling: Unl
Heat Index: 59°   Visibility: 10mi
Dew Point: 54°   Wind: 6mph
Humidity: 82%   Direction: 50°NE
Pressure: 30.14"   Gusts: NA
Location:  31.8112°N, 93.3051°W
Report Text: KIER 230455Z AUTO 05005KT 10SM CLR 15/12 A3014 RMK AO2 T01500120
Loading
Personal Weather Stations






























Interactive Weather Map New forecast layout! Learn more

10-Day Weather Forecast

Advertisements
Track Severe Weather on mobile